from: Feb 26 2020 10:00 pm until: 12:30 pm Special Weather Statement level: Minor
Minimal threat to life or property - Responsive action SHOULD be taken soon (within next hour)
...PATCHY DENSE FOG ACROSS HIGHER TERRAIN... Patchy dense fog will continue through midday across the higher terrain of the western Southern Tier, Boston Hills, and Wyoming County. Visibility will be reduced to less than a half mile in some locations, mainly on the higher hilltops. Temperatures will also be at or just below freezing. Moisture from the fog may
from: Feb 27 2020 5:00 am until: 3:00 pm Lakeshore Flood Watch level: Moderate
Possible threat to life or property - Responsive action SHOULD be taken in the near future
...LAKESHORE FLOOD WATCH REMAINS IN EFFECT FROM LATE TONIGHT THROUGH THURSDAY AFTERNOON... * WHAT...Lakeshore flooding possible. * WHERE...Erie and Chautauqua counties. * WHEN...From late tonight through Thursday afternoon. * IMPACTS...Strong west winds may result in a rise in water
from: Feb 26 2020 10:00 pm until: Feb 29 2020 6:00 pm Lake Effect Snow Warning level: Moderate
Possible threat to life or property - Responsive action SHOULD be taken soon (within next hour)
...LAKE EFFECT SNOW WARNING IN EFFECT FROM 10 PM THIS EVENING TO 6 PM EST SATURDAY... * WHAT...Long duration heavy lake effect snow expected. Total snow accumulations of 1 to 2 feet with locally higher amounts possible in the most persistent bands. Snowfall rates may reach 1 to 2 inches per hour at times. Winds could gust as high as 45 to 50 mph


For GOD so loved the world that HE gave HIS one and only SON, that whoever believes in HIM shall not perish but have eternal life.


Thunder radar more information blitzortung!


Rain radar more information rain snow radar



Select another period ( hide this area )

Units Period Custom range Directly to
Metric English Both
Daily Weekly Monthly Yearly
use both date-selectors for a custom range
previous Day
With this date

WeatherUnderground graphs for this period ( click here )


Daily Summary for Wednesday Feb 26 2020
Time Temp. ( °C ) Dew pt. ( °C ) Wind ( km/h ) from Gust ( km/h ) Pressure ( hPa ) Humid.( % ) Rainrate ( cm ) Solar ( W/m2 )
High2,2 0,4 10,1 ENE ( 205/439 ) 18,5 1014,4 92 0,76 77
Average1,2 -0,8 5,0 ENE #62/141 8,2 1012,4 87 0,00 39 #54/141
Low0,4 -1,3 1,6   3,7 1011,4 79 -  
Daily Tabular details for Wednesday Feb 26 2020
Time Temp. ( °C ) Dew pt. ( °C ) Wind ( km/h ) from Gust ( km/h ) Pressure ( hPa ) Humid.( % ) Rainrate ( cm ) Solar ( W/m2 )
00:00 2,2 -0,6 6,9 ENE 9,3 1014,1 82 - -
00:05 2,2 -0,6 3,9 ENE 5,6 1014,4 82 - -
00:10 2,2 -0,6 2,7 ENE 5,6 1014,4 82 - -
00:15 2,2 -0,7 4,2 East 5,6 1014,4 81 - -
00:20 2,2 -0,7 2,9 ENE 5,6 1014,4 81 - -
00:25 2,2 -0,8 5,6 ENE 7,4 1014,4 81 - -
00:30 2,2 -0,8 3,1 East 5,6 1014,4 81 - -
00:35 2,2 -0,9 4,3 ENE 5,6 1014,4 80 - -
00:40 2,2 -0,9 8,2 ENE 16,7 1014,4 80 - -
00:45 2,2 -0,9 3,9 East 5,6 1014,4 80 - -
00:50 2,2 -0,9 6,1 ENE 9,3 1014,4 80 - -
00:55 2,2 -0,9 5,3 ENE 9,3 1014,4 80 - -
01:00 2,2 -1,1 5,5 ENE 7,4 1014,4 79 - -
01:05 2,1 -1,2 5,8 East 9,7 1014,4 79 - -
01:10 2,1 -1,2 5,8 NE 7,4 1014,4 79 - -
01:15 2,1 -1,1 3,4 NNE 5,6 1014,4 80 - -
01:20 2,1 -1,1 4,0 East 5,6 1014,4 80 - -
01:25 2,0 -1,1 3,2 NE 5,6 1014,4 80 - -
01:30 2,0 -1,1 4,7 East 9,3 1014,1 80 - -
01:35 2,0 -1,1 2,3 East 3,7 1014,1 80 - -
01:40 1,9 -1,2 3,5 East 5,6 1014,1 80 - -
01:45 1,9 -1,2 4,2 East 6,4 1014,1 80 - -
01:50 1,9 -1,2 5,3 ENE 7,4 1014,1 80 - -
01:55 1,9 -1,2 4,0 NE 7,4 1014,1 80 - -
02:00 1,9 -1,1 5,6 NE 7,4 1014,1 81 - -
02:05 1,9 -1,1 5,0 ENE 5,6 1014,1 81 - -
02:10 1,9 -1,1 7,6 NE 11,1 1014,1 81 - -
02:15 1,8 -1,1 5,6 ENE 7,4 1014,1 81 - -
02:20 1,8 -1,1 4,5 ENE 5,6 1014,1 81 - -
02:25 1,8 -1,1 4,5 East 9,3 1014,1 81 - -
02:30 1,8 -0,9 5,1 NE 7,4 1014,1 82 - -
02:35 1,8 -0,9 5,6 NE 7,4 1014,1 82 - -
02:40 1,8 -0,9 5,6 East 9,3 1014,1 82 - -
02:45 1,8 -1,1 6,6 NE 14,8 1014,1 81 - -
02:50 1,7 -1,2 10,1 ENE 18,5 1014,1 81 - -
02:55 1,7 -1,2 5,0 NE 5,6 1014,1 81 - -
03:00 1,7 -1,1 9,3 NE 13,0 1013,8 82 - -
03:05 1,6 -1,1 5,5 NE 7,4 1013,8 82 - -
03:10 1,6 -1,2 6,1 ENE 7,4 1013,8 82 - -
03:15 1,6 -1,2 3,9 East 6,4 1013,8 82 - -
03:20 1,5 -1,2 6,1 East 11,1 1013,8 82 - -
03:25 1,5 -1,2 3,4 East 5,6 1013,8 82 - -
03:30 1,5 -1,2 2,1 ESE 3,7 1014,1 82 - -
03:35 1,5 -1,2 4,7 East 5,6 1013,8 82 - -
03:40 1,4 -1,1 4,5 ENE 7,4 1013,8 83 - -
03:45 1,4 -1,2 1,6 ENE 3,7 1013,8 83 - -
03:50 1,2 -1,3 3,7 ESE 9,7 1013,8 83 - -
03:55 1,2 -1,2 2,3 ESE 5,6 1013,4 84 - -
04:00 1,1 -1,1 3,4 East 5,6 1013,8 85 - -
04:05 1,0 -1,2 2,9 East 5,6 1013,8 85 - -
04:10 0,9 -1,1 2,7 NE 5,6 1013,8 86 - -
04:15 0,9 -1,1 4,3 NE 5,6 1013,8 87 - -
04:20 0,8 -1,1 4,8 ENE 7,4 1013,8 87 - -
04:25 0,8 -1,2 1,6 ENE 3,7 1013,8 87 - -
04:30 0,8 -1,2 5,0 NE 7,4 1013,4 87 - -
04:35 0,8 -1,0 5,5 ENE 13,0 1013,4 88 - -
04:40 0,7 -1,1 4,2 ENE 5,6 1013,8 88 - -
04:45 0,7 -1,1 2,7 East 5,6 1013,8 88 - -
04:50 0,6 -1,0 3,2 ENE 6,4 1013,8 89 - -
04:55 0,6 -1,0 3,5 ESE 5,6 1013,8 89 - -
05:00 0,6 -1,1 4,8 NNE 8,0 1013,4 89 - -
05:05 0,6 -1,1 7,2 NE 14,8 1013,4 89 - -
05:10 0,6 -0,9 5,3 NNE 9,3 1013,4 90 - -
05:15 0,6 -0,9 5,5 NE 8,0 1013,4 90 - -
05:20 0,5 -0,9 4,3 ENE 5,6 1013,4 90 - -
05:25 0,5 -0,9 4,3 ENE 5,6 1013,4 90 - -
05:30 0,5 -0,9 4,3 ENE 5,6 1013,4 90 - -
05:35 0,4 -1,0 8,2 NE 13,0 1013,4 90 - -
05:40 0,4 -1,0 4,2 East 14,8 1013,4 90 - -
05:45 0,4 -1,0 3,4 ENE 5,6 1013,4 90 - -
05:50 0,4 -0,8 5,6 ENE 11,1 1013,4 91 - -
05:55 0,4 -0,8 3,5 East 5,6 1013,4 91 - -
06:00 0,4 -1,0 4,8 ENE 6,4 1013,1 90 - -
06:05 0,4 -1,0 3,7 ENE 5,6 1013,1 90 - -
06:10 0,4 -0,8 6,4 ENE 7,4 1013,1 91 - -
06:15 0,4 -0,8 4,0 East 6,4 1013,1 91 - -
06:20 0,4 -0,8 6,8 East 11,1 1013,1 91 - -
06:25 0,4 -0,8 6,1 ENE 11,1 1013,1 91 - -
06:30 0,4 -0,8 6,3 ENE 14,8 1013,1 91 - -
06:35 0,4 -0,8 5,5 ESE 11,1 1013,1 91 - -
06:40 0,4 -0,8 4,2 ESE 11,3 1013,1 91 - -
06:45 0,4 -1,0 3,5 ENE 5,6 1013,1 90 - -
06:50 0,5 -0,8 6,3 ENE 9,3 1013,1 91 - -
06:55 0,5 -0,9 5,1 ENE 6,4 1013,1 90 - -
07:00 0,5 -0,9 5,5 ESE 11,1 1012,8 90 - -
07:05 0,5 -0,9 5,5 NE 7,4 1013,1 90 - -
07:10 0,6 -0,9 5,5 ENE 9,3 1013,1 90 - 5
07:15 0,6 -0,9 6,3 ENE 13,0 1013,1 90 - -
07:20 0,6 -0,9 7,2 ENE 11,1 1013,1 90 - 5
07:25 0,6 -0,8 7,1 ENE 13,0 1013,1 90 - 5
07:30 0,6 -0,8 5,0 East 5,6 1013,1 90 - 7
07:35 0,6 -0,8 4,3 ESE 6,4 1013,1 90 - 11
07:40 0,6 -0,8 5,5 ENE 12,9 1013,1 90 - 12
07:45 0,7 -0,8 5,3 ENE 7,4 1013,1 90 - 12
07:50 0,7 -0,8 6,6 NE 9,3 1013,1 90 - 14
07:55 0,7 -0,9 5,5 NE 11,3 1013,1 89 - 18
08:00 0,7 -0,9 5,3 ENE 5,6 1013,1 89 - 14
08:05 0,7 -0,9 6,8 ENE 11,1 1013,1 89 - 16
08:10 0,7 -0,9 2,1 ENE 5,6 1013,4 89 - 19
08:15 0,7 -0,7 4,2 East 5,6 1013,4 90 - 16
08:20 0,7 -0,7 3,5 East 6,4 1013,4 90 - 12
08:25 0,7 -0,7 5,5 ENE 7,4 1013,4 90 - 14
08:30 0,7 -0,7 6,9 NE 11,1 1013,1 90 - 25
08:35 0,7 -0,7 3,7 ENE 5,6 1013,1 90 - 28
08:40 0,8 -0,7 3,7 NE 7,4 1012,8 90 - 33
08:45 0,8 -0,7 4,3 NNE 5,6 1012,8 90 - 32
08:50 0,8 -0,7 7,6 ENE 11,1 1012,8 90 - 30
08:55 0,8 -0,6 3,5 East 5,6 1012,8 90 - 35
09:00 0,8 -0,6 5,8 ENE 9,3 1012,8 90 - 37
09:05 0,9 -0,6 8,2 East 11,1 1012,8 90 - 40
09:10 0,9 -0,6 4,7 ENE 5,6 1012,4 90 - 54
09:15 0,9 -0,5 7,2 ENE 13,0 1012,4 90 - 54
09:20 0,9 -0,5 8,4 ENE 13,0 1012,4 90 - 47
09:25 1,0 -0,4 5,6 ENE 7,4 1012,4 90 - 54
09:30 1,0 -0,4 7,6 East 11,1 1012,4 90 - 54
09:35 1,0 -0,4 9,2 ENE 13,0 1012,4 90 - 51
09:40 1,0 -0,4 5,5 East 9,3 1012,1 90 - 49
09:45 1,1 -0,4 9,0 East 14,8 1012,1 90 - 58
09:50 1,1 -0,4 4,7 East 13,0 1012,1 90 - 56
09:55 1,1 -0,3 5,6 ENE 9,3 1012,1 90 - 58
10:00 1,1 -0,2 6,1 ENE 7,4 1012,1 91 - 49
10:05 1,2 -0,2 4,5 East 5,6 1012,1 91 - 37
10:10 1,2 -0,2 4,0 East 5,6 1012,1 91 - 39
10:15 1,2 -0,2 3,9 East 5,6 1012,1 91 - 40
10:20 1,2 -0,1 5,5 NE 8,0 1012,1 91 - 53
10:25 1,3 -0,1 5,1 NNE 11,3 1012,1 91 - 49
10:30 1,3 -0,1 5,8 ENE 8,0 1012,1 91 - 47
10:35 1,3 -0,1 4,7 ENE 7,4 1012,1 91 - 44
10:40 1,3 -0,1 5,6 ENE 7,4 1012,1 91 0,25 54
10:45 1,3 0,0 3,7 NE 6,4 1012,1 91 0,25 65
10:50 1,4 0,1 3,2 East 5,6 1012,1 91 0,25 60
10:55 1,4 0,1 4,8 ENE 9,3 1012,1 91 0,25 54
11:00 1,4 0,1 4,7 ENE 6,4 1012,1 91 0,25 53
11:05 1,4 0,1 5,3 ENE 7,4 1012,1 91 0,25 77
11:10 1,4 0,1 5,0 NE 6,4 1011,7 91 0,25 63
11:15 1,5 0,2 6,0 NE 8,0 1011,7 91 0,25 70
11:20 1,5 0,2 3,2 East 5,6 1011,7 91 0,25 47
11:25 1,5 0,2 5,5 East 7,4 1011,7 91 0,51 63
11:30 1,5 0,2 3,4 East 5,6 1011,7 91 0,51 60
11:35 1,5 0,3 4,2 East 5,6 1011,4 92 0,76 65
11:40 1,6 0,4 3,9 East 9,3 1011,4 92 0,51 56
Daily Summary for Wednesday Feb 26 2020
Time Temp. ( °C ) Dew pt. ( °C ) Wind ( km/h ) from Gust ( km/h ) Pressure ( hPa ) Humid.( % ) Rainrate ( cm ) Solar ( W/m2 )
High2,2 0,4 10,1 ENE ( 205/439 ) 18,5 1014,4 92 0,76 77
Average1,2 -0,8 5,0 ENE #62/141 8,2 1012,4 87 0,00 39 #54/141
Low0,4 -1,3 1,6   3,7 1011,4 79 -  
Daily Tabular details for Wednesday Feb 26 2020
Time Temp. ( °C ) Dew pt. ( °C ) Wind ( km/h ) from Gust ( km/h ) Pressure ( hPa ) Humid.( % ) Rainrate ( cm ) Solar ( W/m2 )
00:00 2,2 -0,6 6,9 ENE 9,3 1014,1 82 - -
00:05 2,2 -0,6 3,9 ENE 5,6 1014,4 82 - -
00:10 2,2 -0,6 2,7 ENE 5,6 1014,4 82 - -
00:15 2,2 -0,7 4,2 East 5,6 1014,4 81 - -
00:20 2,2 -0,7 2,9 ENE 5,6 1014,4 81 - -
00:25 2,2 -0,8 5,6 ENE 7,4 1014,4 81 - -
00:30 2,2 -0,8 3,1 East 5,6 1014,4 81 - -
00:35 2,2 -0,9 4,3 ENE 5,6 1014,4 80 - -
00:40 2,2 -0,9 8,2 ENE 16,7 1014,4 80 - -
00:45 2,2 -0,9 3,9 East 5,6 1014,4 80 - -
00:50 2,2 -0,9 6,1 ENE 9,3 1014,4 80 - -
00:55 2,2 -0,9 5,3 ENE 9,3 1014,4 80 - -
01:00 2,2 -1,1 5,5 ENE 7,4 1014,4 79 - -
01:05 2,1 -1,2 5,8 East 9,7 1014,4 79 - -
01:10 2,1 -1,2 5,8 NE 7,4 1014,4 79 - -
01:15 2,1 -1,1 3,4 NNE 5,6 1014,4 80 - -
01:20 2,1 -1,1 4,0 East 5,6 1014,4 80 - -
01:25 2,0 -1,1 3,2 NE 5,6 1014,4 80 - -
01:30 2,0 -1,1 4,7 East 9,3 1014,1 80 - -
01:35 2,0 -1,1 2,3 East 3,7 1014,1 80 - -
01:40 1,9 -1,2 3,5 East 5,6 1014,1 80 - -
01:45 1,9 -1,2 4,2 East 6,4 1014,1 80 - -
01:50 1,9 -1,2 5,3 ENE 7,4 1014,1 80 - -
01:55 1,9 -1,2 4,0 NE 7,4 1014,1 80 - -
02:00 1,9 -1,1 5,6 NE 7,4 1014,1 81 - -
02:05 1,9 -1,1 5,0 ENE 5,6 1014,1 81 - -
02:10 1,9 -1,1 7,6 NE 11,1 1014,1 81 - -
02:15 1,8 -1,1 5,6 ENE 7,4 1014,1 81 - -
02:20 1,8 -1,1 4,5 ENE 5,6 1014,1 81 - -
02:25 1,8 -1,1 4,5 East 9,3 1014,1 81 - -
02:30 1,8 -0,9 5,1 NE 7,4 1014,1 82 - -
02:35 1,8 -0,9 5,6 NE 7,4 1014,1 82 - -
02:40 1,8 -0,9 5,6 East 9,3 1014,1 82 - -
02:45 1,8 -1,1 6,6 NE 14,8 1014,1 81 - -
02:50 1,7 -1,2 10,1 ENE 18,5 1014,1 81 - -
02:55 1,7 -1,2 5,0 NE 5,6 1014,1 81 - -
03:00 1,7 -1,1 9,3 NE 13,0 1013,8 82 - -
03:05 1,6 -1,1 5,5 NE 7,4 1013,8 82 - -
03:10 1,6 -1,2 6,1 ENE 7,4 1013,8 82 - -
03:15 1,6 -1,2 3,9 East 6,4 1013,8 82 - -
03:20 1,5 -1,2 6,1 East 11,1 1013,8 82 - -
03:25 1,5 -1,2 3,4 East 5,6 1013,8 82 - -
03:30 1,5 -1,2 2,1 ESE 3,7 1014,1 82 - -
03:35 1,5 -1,2 4,7 East 5,6 1013,8 82 - -
03:40 1,4 -1,1 4,5 ENE 7,4 1013,8 83 - -
03:45 1,4 -1,2 1,6 ENE 3,7 1013,8 83 - -
03:50 1,2 -1,3 3,7 ESE 9,7 1013,8 83 - -
03:55 1,2 -1,2 2,3 ESE 5,6 1013,4 84 - -
04:00 1,1 -1,1 3,4 East 5,6 1013,8 85 - -
04:05 1,0 -1,2 2,9 East 5,6 1013,8 85 - -
04:10 0,9 -1,1 2,7 NE 5,6 1013,8 86 - -
04:15 0,9 -1,1 4,3 NE 5,6 1013,8 87 - -
04:20 0,8 -1,1 4,8 ENE 7,4 1013,8 87 - -
04:25 0,8 -1,2 1,6 ENE 3,7 1013,8 87 - -
04:30 0,8 -1,2 5,0 NE 7,4 1013,4 87 - -
04:35 0,8 -1,0 5,5 ENE 13,0 1013,4 88 - -
04:40 0,7 -1,1 4,2 ENE 5,6 1013,8 88 - -
04:45 0,7 -1,1 2,7 East 5,6 1013,8 88 - -
04:50 0,6 -1,0 3,2 ENE 6,4 1013,8 89 - -
04:55 0,6 -1,0 3,5 ESE 5,6 1013,8 89 - -
05:00 0,6 -1,1 4,8 NNE 8,0 1013,4 89 - -
05:05 0,6 -1,1 7,2 NE 14,8 1013,4 89 - -
05:10 0,6 -0,9 5,3 NNE 9,3 1013,4 90 - -
05:15 0,6 -0,9 5,5 NE 8,0 1013,4 90 - -
05:20 0,5 -0,9 4,3 ENE 5,6 1013,4 90 - -
05:25 0,5 -0,9 4,3 ENE 5,6 1013,4 90 - -
05:30 0,5 -0,9 4,3 ENE 5,6 1013,4 90 - -
05:35 0,4 -1,0 8,2 NE 13,0 1013,4 90 - -
05:40 0,4 -1,0 4,2 East 14,8 1013,4 90 - -
05:45 0,4 -1,0 3,4 ENE 5,6 1013,4 90 - -
05:50 0,4 -0,8 5,6 ENE 11,1 1013,4 91 - -
05:55 0,4 -0,8 3,5 East 5,6 1013,4 91 - -
06:00 0,4 -1,0 4,8 ENE 6,4 1013,1 90 - -
06:05 0,4 -1,0 3,7 ENE 5,6 1013,1 90 - -
06:10 0,4 -0,8 6,4 ENE 7,4 1013,1 91 - -
06:15 0,4 -0,8 4,0 East 6,4 1013,1 91 - -
06:20 0,4 -0,8 6,8 East 11,1 1013,1 91 - -
06:25 0,4 -0,8 6,1 ENE 11,1 1013,1 91 - -
06:30 0,4 -0,8 6,3 ENE 14,8 1013,1 91 - -
06:35 0,4 -0,8 5,5 ESE 11,1 1013,1 91 - -
06:40 0,4 -0,8 4,2 ESE 11,3 1013,1 91 - -
06:45 0,4 -1,0 3,5 ENE 5,6 1013,1 90 - -
06:50 0,5 -0,8 6,3 ENE 9,3 1013,1 91 - -
06:55 0,5 -0,9 5,1 ENE 6,4 1013,1 90 - -
07:00 0,5 -0,9 5,5 ESE 11,1 1012,8 90 - -
07:05 0,5 -0,9 5,5 NE 7,4 1013,1 90 - -
07:10 0,6 -0,9 5,5 ENE 9,3 1013,1 90 - 5
07:15 0,6 -0,9 6,3 ENE 13,0 1013,1 90 - -
07:20 0,6 -0,9 7,2 ENE 11,1 1013,1 90 - 5
07:25 0,6 -0,8 7,1 ENE 13,0 1013,1 90 - 5
07:30 0,6 -0,8 5,0 East 5,6 1013,1 90 - 7
07:35 0,6 -0,8 4,3 ESE 6,4 1013,1 90 - 11
07:40 0,6 -0,8 5,5 ENE 12,9 1013,1 90 - 12
07:45 0,7 -0,8 5,3 ENE 7,4 1013,1 90 - 12
07:50 0,7 -0,8 6,6 NE 9,3 1013,1 90 - 14
07:55 0,7 -0,9 5,5 NE 11,3 1013,1 89 - 18
08:00 0,7 -0,9 5,3 ENE 5,6 1013,1 89 - 14
08:05 0,7 -0,9 6,8 ENE 11,1 1013,1 89 - 16
08:10 0,7 -0,9 2,1 ENE 5,6 1013,4 89 - 19
08:15 0,7 -0,7 4,2 East 5,6 1013,4 90 - 16
08:20 0,7 -0,7 3,5 East 6,4 1013,4 90 - 12
08:25 0,7 -0,7 5,5 ENE 7,4 1013,4 90 - 14
08:30 0,7 -0,7 6,9 NE 11,1 1013,1 90 - 25
08:35 0,7 -0,7 3,7 ENE 5,6 1013,1 90 - 28
08:40 0,8 -0,7 3,7 NE 7,4 1012,8 90 - 33
08:45 0,8 -0,7 4,3 NNE 5,6 1012,8 90 - 32
08:50 0,8 -0,7 7,6 ENE 11,1 1012,8 90 - 30
08:55 0,8 -0,6 3,5 East 5,6 1012,8 90 - 35
09:00 0,8 -0,6 5,8 ENE 9,3 1012,8 90 - 37
09:05 0,9 -0,6 8,2 East 11,1 1012,8 90 - 40
09:10 0,9 -0,6 4,7 ENE 5,6 1012,4 90 - 54
09:15 0,9 -0,5 7,2 ENE 13,0 1012,4 90 - 54
09:20 0,9 -0,5 8,4 ENE 13,0 1012,4 90 - 47
09:25 1,0 -0,4 5,6 ENE 7,4 1012,4 90 - 54
09:30 1,0 -0,4 7,6 East 11,1 1012,4 90 - 54
09:35 1,0 -0,4 9,2 ENE 13,0 1012,4 90 - 51
09:40 1,0 -0,4 5,5 East 9,3 1012,1 90 - 49
09:45 1,1 -0,4 9,0 East 14,8 1012,1 90 - 58
09:50 1,1 -0,4 4,7 East 13,0 1012,1 90 - 56
09:55 1,1 -0,3 5,6 ENE 9,3 1012,1 90 - 58
10:00 1,1 -0,2 6,1 ENE 7,4 1012,1 91 - 49
10:05 1,2 -0,2 4,5 East 5,6 1012,1 91 - 37
10:10 1,2 -0,2 4,0 East 5,6 1012,1 91 - 39
10:15 1,2 -0,2 3,9 East 5,6 1012,1 91 - 40
10:20 1,2 -0,1 5,5 NE 8,0 1012,1 91 - 53
10:25 1,3 -0,1 5,1 NNE 11,3 1012,1 91 - 49
10:30 1,3 -0,1 5,8 ENE 8,0 1012,1 91 - 47
10:35 1,3 -0,1 4,7 ENE 7,4 1012,1 91 - 44
10:40 1,3 -0,1 5,6 ENE 7,4 1012,1 91 0,25 54
10:45 1,3 0,0 3,7 NE 6,4 1012,1 91 0,25 65
10:50 1,4 0,1 3,2 East 5,6 1012,1 91 0,25 60
10:55 1,4 0,1 4,8 ENE 9,3 1012,1 91 0,25 54
11:00 1,4 0,1 4,7 ENE 6,4 1012,1 91 0,25 53
11:05 1,4 0,1 5,3 ENE 7,4 1012,1 91 0,25 77
11:10 1,4 0,1 5,0 NE 6,4 1011,7 91 0,25 63
11:15 1,5 0,2 6,0 NE 8,0 1011,7 91 0,25 70
11:20 1,5 0,2 3,2 East 5,6 1011,7 91 0,25 47
11:25 1,5 0,2 5,5 East 7,4 1011,7 91 0,51 63
11:30 1,5 0,2 3,4 East 5,6 1011,7 91 0,51 60
11:35 1,5 0,3 4,2 East 5,6 1011,4 92 0,76 65
11:40 1,6 0,4 3,9 East 9,3 1011,4 92 0,51 56

Download your copy of this data-set  here

Our weather-data as stored at Weather Underground. Script developed by Jim McMurry. Adapted for the template by Leuven-Template.eu